createdAt,value
2022-10-09T00:00:49.617Z,49.13
2022-10-09T00:01:49.805Z,49.19
2022-10-09T00:02:50.334Z,49.51
2022-10-09T00:03:50.033Z,49.19
2022-10-09T00:04:50.190Z,49.48
2022-10-09T00:05:50.272Z,49.36
2022-10-09T00:06:50.442Z,49.42
2022-10-09T00:07:50.531Z,49.22
2022-10-09T00:08:50.663Z,49.10
2022-10-09T00:09:50.793Z,49.19
2022-10-09T00:10:51.053Z,49.77
2022-10-09T00:11:51.076Z,49.48
2022-10-09T00:12:51.478Z,49.65
2022-10-09T00:13:51.340Z,49.51
2022-10-09T00:14:51.468Z,49.95
2022-10-09T00:15:51.630Z,49.69
2022-10-09T00:16:51.742Z,50.25
2022-10-09T00:17:51.862Z,49.86
2022-10-09T00:18:51.991Z,49.92
2022-10-09T00:19:52.119Z,50.07
2022-10-09T00:20:52.278Z,50.65
2022-10-09T00:21:52.398Z,50.25
2022-10-09T00:22:52.498Z,50.28
2022-10-09T00:23:52.627Z,50.71
2022-10-09T00:24:52.771Z,50.31
2022-10-09T00:25:52.926Z,50.53
2022-10-09T00:26:53.036Z,50.65
2022-10-09T00:27:53.157Z,51.08
2022-10-09T00:28:53.330Z,50.56
2022-10-09T00:29:53.455Z,51.30
2022-10-09T00:30:53.718Z,50.83
2022-10-09T00:31:53.705Z,51.56
2022-10-09T00:32:53.853Z,51.27
2022-10-09T00:33:53.926Z,50.96
2022-10-09T00:34:54.072Z,51.37
2022-10-09T00:35:54.287Z,51.62
2022-10-09T00:36:54.341Z,51.88
2022-10-09T00:37:54.469Z,51.62
2022-10-09T00:38:54.607Z,52.14
2022-10-09T00:39:54.723Z,51.56
2022-10-09T00:40:54.887Z,51.62
2022-10-09T00:41:54.993Z,51.88
2022-10-09T00:42:55.122Z,51.94
2022-10-09T00:43:55.263Z,52.04
2022-10-09T00:44:55.389Z,52.27
2022-10-09T00:45:55.725Z,52.50
2022-10-09T00:46:55.681Z,52.27
2022-10-09T00:47:55.763Z,52.20
2022-10-09T00:48:55.909Z,52.47
2022-10-09T00:49:56.033Z,52.27
2022-10-09T00:50:56.300Z,52.76
2022-10-09T00:51:56.308Z,52.43
2022-10-09T00:52:56.400Z,52.86
2022-10-09T00:53:56.529Z,52.66
2022-10-09T00:54:56.670Z,52.83
2022-10-09T00:55:56.922Z,53.44
2022-10-09T00:56:56.969Z,52.93
2022-10-09T00:57:57.068Z,53.37
2022-10-09T00:58:57.212Z,53.17
2022-10-09T00:59:57.357Z,52.97
2022-10-09T01:00:57.585Z,53.07
2022-10-09T01:01:57.761Z,53.61
2022-10-09T01:02:57.746Z,53.47
2022-10-09T01:03:57.887Z,53.34
2022-10-09T01:04:58.015Z,53.47
2022-10-09T01:05:58.937Z,53.58
2022-10-09T01:06:58.278Z,53.58
2022-10-09T01:07:58.427Z,53.78
2022-10-09T01:08:58.568Z,53.54
2022-10-09T01:09:58.715Z,53.75
2022-10-09T01:10:58.795Z,53.85
2022-10-09T01:11:59.035Z,53.89
2022-10-09T01:12:59.073Z,53.89
2022-10-09T01:13:59.223Z,53.82
2022-10-09T01:14:59.352Z,53.96
2022-10-09T01:15:59.551Z,54.17
2022-10-09T01:16:59.729Z,54.10
2022-10-09T01:17:59.751Z,54.13
2022-10-09T01:18:59.883Z,53.99
2022-10-09T01:20:00.031Z,54.27
2022-10-09T01:21:00.122Z,54.10
2022-10-09T01:22:00.381Z,54.10
2022-10-09T01:23:00.391Z,53.99
2022-10-09T01:24:00.521Z,54.20
2022-10-09T01:25:00.650Z,54.20
2022-10-09T01:26:00.779Z,54.17
2022-10-09T01:27:00.952Z,54.42
2022-10-09T01:28:01.030Z,54.20
2022-10-09T01:29:01.158Z,54.38
2022-10-09T01:30:01.310Z,54.27
2022-10-09T01:31:01.506Z,54.59
2022-10-09T01:32:01.648Z,54.67
2022-10-09T01:33:01.706Z,54.77
2022-10-09T01:34:01.789Z,54.92
2022-10-09T01:35:01.916Z,55.03
2022-10-09T01:36:02.081Z,55.28
2022-10-09T01:37:02.248Z,55.39
2022-10-09T01:38:02.305Z,55.28
2022-10-09T01:39:02.456Z,55.17
2022-10-09T01:40:02.597Z,55.43
2022-10-09T01:41:02.665Z,55.39
2022-10-09T01:42:02.860Z,55.47
2022-10-09T01:43:02.955Z,55.58
2022-10-09T01:44:03.098Z,55.72
2022-10-09T01:45:03.245Z,55.80
2022-10-09T01:46:03.393Z,55.84
2022-10-09T01:47:04.144Z,55.95
2022-10-09T01:48:03.650Z,55.95
2022-10-09T01:49:03.792Z,56.21
2022-10-09T01:50:03.924Z,56.33
2022-10-09T01:51:04.072Z,56.10
2022-10-09T01:52:04.281Z,56.29
2022-10-09T01:53:04.342Z,56.33
2022-10-09T01:54:04.489Z,56.59
2022-10-09T01:55:04.632Z,56.59
2022-10-09T01:56:04.782Z,56.48
2022-10-09T01:57:04.994Z,56.56
2022-10-09T01:58:05.032Z,56.52
2022-10-09T01:59:05.171Z,56.67
2022-10-09T02:00:05.322Z,56.83
2022-10-09T02:01:05.407Z,56.71
2022-10-09T02:02:05.772Z,56.83
2022-10-09T02:03:05.716Z,57.06
2022-10-09T02:04:05.808Z,56.86
2022-10-09T02:05:05.941Z,56.98
2022-10-09T02:06:06.069Z,57.06
2022-10-09T02:07:06.260Z,57.21
2022-10-09T02:08:06.356Z,57.14
2022-10-09T02:09:06.438Z,57.33
2022-10-09T02:10:06.565Z,57.37
2022-10-09T02:11:06.719Z,57.45
2022-10-09T02:12:06.885Z,57.41
2022-10-09T02:13:06.968Z,57.53
2022-10-09T02:14:07.117Z,57.45
2022-10-09T02:15:07.247Z,57.61
2022-10-09T02:16:07.481Z,57.65
2022-10-09T02:17:07.705Z,57.93
2022-10-09T02:18:07.655Z,57.97
2022-10-09T02:19:07.788Z,57.97
2022-10-09T02:20:07.915Z,58.17
2022-10-09T02:21:08.046Z,58.05
2022-10-09T02:22:08.210Z,58.17
2022-10-09T02:23:08.329Z,58.17
2022-10-09T02:24:08.431Z,58.25
2022-10-09T02:25:08.571Z,58.38
2022-10-09T02:26:08.693Z,58.46
2022-10-09T02:27:08.963Z,58.54
2022-10-09T02:28:08.992Z,58.62
2022-10-09T02:29:09.104Z,58.62
2022-10-09T02:30:09.242Z,58.95
2022-10-09T02:31:09.439Z,58.87
2022-10-09T02:32:09.625Z,58.87
2022-10-09T02:33:09.659Z,59.20
2022-10-09T02:34:09.805Z,59.08
2022-10-09T02:35:09.938Z,59.25
2022-10-09T02:36:10.049Z,59.25
2022-10-09T02:37:10.241Z,59.29
2022-10-09T02:38:10.310Z,59.63
2022-10-09T02:39:10.447Z,59.50
2022-10-09T02:40:10.960Z,59.58
2022-10-09T02:41:10.720Z,59.76
2022-10-09T02:42:10.897Z,59.84
2022-10-09T02:43:10.971Z,59.63
2022-10-09T02:44:11.105Z,60.06
2022-10-09T02:45:11.251Z,59.88
2022-10-09T02:46:11.490Z,60.01
2022-10-09T02:47:11.563Z,60.27
2022-10-09T02:48:11.642Z,60.27
2022-10-09T02:49:11.765Z,60.53
2022-10-09T02:50:11.904Z,60.53
2022-10-09T02:51:12.058Z,60.45
2022-10-09T02:52:12.247Z,60.84
2022-10-09T02:53:12.279Z,60.58
2022-10-09T02:54:12.420Z,60.80
2022-10-09T02:55:12.556Z,61.02
2022-10-09T02:56:12.716Z,60.89
2022-10-09T02:57:12.885Z,61.07
2022-10-09T02:58:12.916Z,60.93
2022-10-09T02:59:13.064Z,61.25
2022-10-09T03:00:13.196Z,61.16
2022-10-09T03:01:13.338Z,61.34
2022-10-09T03:02:13.643Z,61.38
2022-10-09T03:03:13.626Z,61.38
2022-10-09T03:04:13.775Z,61.88
2022-10-09T03:05:13.898Z,61.65
2022-10-09T03:06:14.024Z,61.70
2022-10-09T03:07:14.235Z,61.88
2022-10-09T03:08:14.294Z,61.79
2022-10-09T03:09:14.430Z,61.93
2022-10-09T03:10:14.572Z,61.84
2022-10-09T03:11:14.703Z,62.30
2022-10-09T03:12:14.869Z,62.25
2022-10-09T03:13:14.951Z,62.11
2022-10-09T03:14:15.074Z,62.34
2022-10-09T03:15:15.213Z,62.30
2022-10-09T03:16:15.392Z,62.49
2022-10-09T03:17:15.531Z,62.53
2022-10-09T03:18:15.610Z,62.62
2022-10-09T03:19:15.735Z,62.67
2022-10-09T03:20:15.880Z,62.77
2022-10-09T03:21:16.009Z,62.67
2022-10-09T03:22:16.179Z,63.00
2022-10-09T03:23:16.277Z,62.96
2022-10-09T03:24:16.412Z,63.00
2022-10-09T03:25:16.561Z,63.29
2022-10-09T03:26:16.700Z,63.34
2022-10-09T03:27:16.892Z,63.48
2022-10-09T03:28:17.044Z,63.34
2022-10-09T03:29:17.118Z,63.44
2022-10-09T03:30:17.249Z,63.87
2022-10-09T03:31:33.346Z,63.68
2022-10-09T03:32:18.708Z,63.72
2022-10-09T03:33:17.637Z,63.92
2022-10-09T03:34:17.797Z,64.02
2022-10-09T03:35:17.918Z,64.07
2022-10-09T03:36:18.056Z,64.17
2022-10-09T03:37:18.247Z,64.22
2022-10-09T03:38:18.346Z,64.02
2022-10-09T03:39:18.479Z,64.22
2022-10-09T03:40:18.627Z,64.17
2022-10-09T03:41:18.735Z,64.36
2022-10-09T03:42:18.916Z,64.41
2022-10-09T03:43:18.985Z,64.51
2022-10-09T03:44:19.114Z,64.41
2022-10-09T03:45:19.268Z,64.66
2022-10-09T03:46:19.464Z,64.76
2022-10-09T03:47:19.648Z,64.97
2022-10-09T03:48:19.684Z,64.81
2022-10-09T03:49:19.803Z,65.02
2022-10-09T03:50:19.952Z,64.81
2022-10-09T03:51:20.097Z,64.86
2022-10-09T03:52:20.273Z,64.86
2022-10-09T03:53:20.351Z,65.07
2022-10-09T03:54:20.481Z,65.27
2022-10-09T03:55:20.621Z,65.27
2022-10-09T03:56:20.760Z,65.53
2022-10-09T03:57:21.045Z,65.32
2022-10-09T03:58:21.021Z,65.48
2022-10-09T03:59:21.153Z,65.37
2022-10-09T04:00:21.319Z,65.48
2022-10-09T04:01:21.490Z,65.79
2022-10-09T04:02:21.559Z,65.58
2022-10-09T04:03:21.619Z,65.53
2022-10-09T04:04:21.751Z,65.73
2022-10-09T04:05:21.891Z,65.84
2022-10-09T04:06:22.040Z,65.68
2022-10-09T04:07:22.228Z,65.84
2022-10-09T04:08:22.319Z,65.94
2022-10-09T04:09:22.455Z,65.94
2022-10-09T04:10:22.589Z,65.84
2022-10-09T04:11:22.739Z,65.89
2022-10-09T04:12:22.837Z,65.68
2022-10-09T04:13:22.980Z,66.15
2022-10-09T04:14:23.118Z,66.31
2022-10-09T04:15:23.246Z,66.36
2022-10-09T04:16:23.474Z,66.20
2022-10-09T04:17:23.526Z,66.47
2022-10-09T04:18:23.667Z,66.57
2022-10-09T04:19:23.814Z,66.73
2022-10-09T04:20:23.942Z,66.47
2022-10-09T04:21:24.188Z,66.41
2022-10-09T04:22:24.211Z,66.52
2022-10-09T04:23:24.329Z,66.57
2022-10-09T04:24:24.471Z,66.84
2022-10-09T04:25:24.585Z,66.89
2022-10-09T04:26:24.734Z,66.73
2022-10-09T04:27:24.832Z,66.84
2022-10-09T04:28:24.997Z,66.63
2022-10-09T04:29:25.110Z,67.11
2022-10-09T04:30:25.248Z,67.00
2022-10-09T04:31:25.466Z,67.22
2022-10-09T04:32:25.501Z,67.11
2022-10-09T04:33:25.642Z,67.05
2022-10-09T04:34:25.794Z,67.22
2022-10-09T04:35:25.932Z,67.16
2022-10-09T04:36:26.093Z,67.32
2022-10-09T04:37:26.205Z,67.32
2022-10-09T04:38:26.340Z,67.49
2022-10-09T04:39:26.472Z,67.54
2022-10-09T04:40:26.607Z,67.38
2022-10-09T04:41:26.759Z,67.32
2022-10-09T04:42:26.861Z,67.76
2022-10-09T04:43:27.003Z,67.49
2022-10-09T04:44:27.130Z,67.60
2022-10-09T04:45:27.304Z,67.43
2022-10-09T04:46:27.438Z,67.71
2022-10-09T04:47:27.527Z,67.71
2022-10-09T04:48:27.678Z,67.65
2022-10-09T04:49:27.818Z,67.76
2022-10-09T04:50:27.976Z,67.87
2022-10-09T04:51:28.106Z,67.82
2022-10-09T04:52:28.208Z,67.65
2022-10-09T04:53:28.356Z,67.82
2022-10-09T04:54:28.499Z,67.82
2022-10-09T04:55:28.639Z,67.82
2022-10-09T04:56:28.807Z,67.87
2022-10-09T04:57:28.905Z,67.49
2022-10-09T04:58:29.046Z,67.65
2022-10-09T04:59:29.183Z,67.65
2022-10-09T05:00:29.323Z,67.60
2022-10-09T05:01:33.005Z,67.65
2022-10-09T05:02:30.641Z,67.71
2022-10-09T05:03:29.704Z,67.87
2022-10-09T05:04:29.844Z,67.60
2022-10-09T05:05:29.975Z,67.71
2022-10-09T05:06:30.251Z,67.87
2022-10-09T05:07:30.252Z,67.71
2022-10-09T05:08:30.355Z,67.87
2022-10-09T05:09:30.465Z,67.82
2022-10-09T05:10:30.571Z,67.93
2022-10-09T05:11:30.891Z,67.87
2022-10-09T05:12:30.850Z,67.93
2022-10-09T05:13:30.950Z,68.15
2022-10-09T05:14:31.089Z,68.32
2022-10-09T05:15:31.249Z,68.09
2022-10-09T05:16:31.636Z,68.54
2022-10-09T05:17:31.578Z,68.43
2022-10-09T05:18:31.618Z,68.49
2022-10-09T05:19:31.747Z,68.21
2022-10-09T05:20:31.878Z,68.65
2022-10-09T05:21:32.150Z,68.49
2022-10-09T05:22:32.149Z,68.77
2022-10-09T05:23:32.280Z,68.71
2022-10-09T05:24:32.416Z,68.82
2022-10-09T05:25:32.576Z,69.05
2022-10-09T05:26:32.696Z,69.11
2022-10-09T05:27:32.798Z,69.00
2022-10-09T05:28:33.000Z,69.40
2022-10-09T05:29:33.106Z,69.22
2022-10-09T05:30:33.283Z,69.28
2022-10-09T05:31:33.396Z,69.28
2022-10-09T05:32:33.486Z,69.40
2022-10-09T05:33:33.625Z,69.51
2022-10-09T05:34:33.754Z,69.45
2022-10-09T05:35:33.913Z,69.69
2022-10-09T05:36:34.006Z,69.40
2022-10-09T05:37:34.197Z,69.69
2022-10-09T05:38:34.273Z,69.69
2022-10-09T05:39:34.426Z,69.69
2022-10-09T05:40:34.605Z,69.92
2022-10-09T05:41:34.695Z,69.80
2022-10-09T05:42:34.822Z,69.92
2022-10-09T05:43:34.951Z,69.86
2022-10-09T05:44:35.079Z,69.75
2022-10-09T05:45:35.300Z,69.75
2022-10-09T05:46:35.364Z,69.86
2022-10-09T05:47:35.491Z,70.04
2022-10-09T05:48:35.629Z,69.98
2022-10-09T05:49:35.782Z,70.21
2022-10-09T05:50:35.920Z,69.98
2022-10-09T05:51:36.050Z,70.10
2022-10-09T05:52:36.149Z,70.21
2022-10-09T05:53:36.269Z,70.15
2022-10-09T05:54:36.357Z,70.04
2022-10-09T05:55:36.517Z,70.21
2022-10-09T05:56:36.634Z,70.33
2022-10-09T05:57:36.778Z,70.33
2022-10-09T05:58:36.899Z,70.21
2022-10-09T05:59:37.071Z,70.27
2022-10-09T06:00:37.276Z,69.98
2022-10-09T06:01:37.515Z,70.15
2022-10-09T06:02:37.493Z,70.10
2022-10-09T06:03:37.552Z,70.04
2022-10-09T06:04:37.689Z,70.21
2022-10-09T06:05:37.886Z,70.39
2022-10-09T06:06:37.976Z,70.33
2022-10-09T06:07:38.118Z,70.04
2022-10-09T06:08:38.266Z,70.15
2022-10-09T06:09:38.405Z,70.10
2022-10-09T06:10:38.562Z,69.98
2022-10-09T06:11:38.675Z,70.04
2022-10-09T06:12:38.763Z,70.33
2022-10-09T06:13:38.924Z,70.27
2022-10-09T06:14:39.015Z,70.45
2022-10-09T06:15:39.166Z,70.27
2022-10-09T06:16:39.309Z,70.39
2022-10-09T06:17:39.392Z,70.63
2022-10-09T06:18:39.513Z,70.45
2022-10-09T06:19:39.654Z,70.39
2022-10-09T06:20:39.842Z,70.27
2022-10-09T06:21:39.963Z,70.21
2022-10-09T06:22:40.070Z,70.45
2022-10-09T06:23:40.190Z,70.27
2022-10-09T06:24:40.331Z,70.33
2022-10-09T06:25:40.510Z,70.33
2022-10-09T06:26:40.603Z,70.45
2022-10-09T06:27:40.739Z,70.27
2022-10-09T06:28:41.035Z,70.45
2022-10-09T06:29:41.101Z,70.27
2022-10-09T06:30:41.160Z,70.27
2022-10-09T06:31:41.298Z,69.98
2022-10-09T06:32:41.376Z,69.75
2022-10-09T06:33:41.470Z,69.51
2022-10-09T06:34:41.678Z,69.17
2022-10-09T06:35:41.697Z,69.17
2022-10-09T06:36:41.826Z,69.28
2022-10-09T06:37:41.967Z,69.34
2022-10-09T06:38:42.106Z,69.17
2022-10-09T06:39:42.319Z,69.17
2022-10-09T06:40:42.356Z,69.17
2022-10-09T06:41:42.485Z,70.33
2022-10-09T06:42:42.646Z,69.69
2022-10-09T06:43:42.754Z,69.75
2022-10-09T06:44:42.967Z,69.63
2022-10-09T06:45:43.072Z,69.34
2022-10-09T06:46:43.155Z,69.22
2022-10-09T06:47:43.324Z,69.22
2022-10-09T06:48:43.383Z,68.71
2022-10-09T06:49:43.584Z,68.65
2022-10-09T06:50:43.653Z,68.49
2022-10-09T06:51:43.792Z,68.32
2022-10-09T06:52:44.005Z,67.65
2022-10-09T06:53:44.043Z,67.32
2022-10-09T06:54:44.214Z,67.27
2022-10-09T06:55:44.314Z,67.60
2022-10-09T06:56:44.445Z,67.87
2022-10-09T06:57:44.601Z,68.60
2022-10-09T06:58:44.690Z,69.22
2022-10-09T06:59:44.861Z,69.86
2022-10-09T07:00:44.963Z,70.04
2022-10-09T07:01:45.162Z,70.57
2022-10-09T07:02:45.236Z,70.57
2022-10-09T07:03:45.316Z,70.81
2022-10-09T07:04:45.479Z,70.63
2022-10-09T07:05:45.568Z,70.81
2022-10-09T07:06:45.699Z,73.56
2022-10-09T07:07:45.852Z,76.39
2022-10-09T07:08:45.955Z,80.20
2022-10-09T07:09:46.137Z,84.42
2022-10-09T07:10:46.231Z,84.00
2022-10-09T07:11:46.370Z,90.07
2022-10-09T07:12:46.851Z,95.03
2022-10-09T07:13:46.647Z,104.17
2022-10-09T07:14:46.776Z,117.27
2022-10-09T07:15:46.950Z,129.86
2022-10-09T07:16:47.004Z,141.06
2022-10-09T07:17:47.108Z,151.15
2022-10-09T07:18:47.226Z,157.28
2022-10-09T07:19:47.399Z,165.71
2022-10-09T07:20:47.467Z,170.98
2022-10-09T07:21:47.618Z,178.09
2022-10-09T07:22:48.018Z,178.48
2022-10-09T07:23:47.847Z,182.78
2022-10-09T07:24:47.995Z,186.57
2022-10-09T07:25:48.132Z,195.81
2022-10-09T07:26:48.236Z,200.73
2022-10-09T07:27:48.327Z,208.77
2022-10-09T07:28:48.516Z,214.78
2022-10-09T07:29:48.623Z,219.67
2022-10-09T07:30:48.815Z,226.18
2022-10-09T07:31:48.878Z,224.48
2022-10-09T07:32:49.241Z,226.81
2022-10-09T07:33:49.160Z,230.64
2022-10-09T07:34:49.354Z,231.12
2022-10-09T07:35:49.446Z,232.93
2022-10-09T07:36:49.564Z,236.62
2022-10-09T07:37:49.665Z,240.79
2022-10-09T07:38:49.756Z,240.44
2022-10-09T07:39:49.949Z,238.34
2022-10-09T07:40:50.033Z,242.75
2022-10-09T07:41:50.201Z,246.03
2022-10-09T07:42:50.661Z,252.66
2022-10-09T07:43:50.444Z,252.85
2022-10-09T07:44:50.582Z,261.31
2022-10-09T07:45:50.730Z,269.47
2022-10-09T07:46:50.803Z,275.35
2022-10-09T07:47:50.922Z,276.51
2022-10-09T07:48:51.023Z,286.65
2022-10-09T07:49:51.162Z,294.37
2022-10-09T07:50:51.272Z,299.47
2022-10-09T07:51:51.370Z,279.33
2022-10-09T07:52:51.855Z,294.63
2022-10-09T07:53:51.642Z,316.21
2022-10-09T07:54:51.779Z,333.23
2022-10-09T07:55:51.885Z,344.42
2022-10-09T07:56:52.003Z,348.82
2022-10-09T07:57:52.129Z,356.01
2022-10-09T07:58:52.222Z,365.93
2022-10-09T07:59:52.381Z,372.16
2022-10-09T08:00:52.450Z,384.34
2022-10-09T08:01:52.570Z,385.23
2022-10-09T08:02:53.244Z,387.69
2022-10-09T08:03:52.757Z,396.22
2022-10-09T08:04:52.886Z,392.72
2022-10-09T08:05:52.970Z,389.73
2022-10-09T08:06:53.149Z,402.68
2022-10-09T08:07:53.249Z,405.62
2022-10-09T08:08:53.348Z,403.90
2022-10-09T08:09:53.620Z,394.58
2022-10-09T08:10:53.559Z,394.11
2022-10-09T08:11:53.659Z,401.95
2022-10-09T08:12:53.830Z,401.46
2022-10-09T08:13:53.941Z,401.22
2022-10-09T08:14:54.080Z,407.85
2022-10-09T08:15:54.268Z,417.29
2022-10-09T08:16:54.299Z,417.82
2022-10-09T08:17:54.462Z,414.70
2022-10-09T08:18:54.567Z,408.10
2022-10-09T08:19:54.706Z,418.08
2022-10-09T08:20:54.822Z,426.36
2022-10-09T08:21:54.929Z,436.98
2022-10-09T08:22:55.048Z,444.55
2022-10-09T08:23:55.371Z,453.32
2022-10-09T08:24:55.246Z,449.05
2022-10-09T08:25:55.397Z,443.37
2022-10-09T08:26:55.513Z,448.44
2022-10-09T08:27:55.642Z,446.94
2022-10-09T08:28:55.775Z,449.95
2022-10-09T08:29:55.876Z,443.37
2022-10-09T08:30:56.001Z,442.20
2022-10-09T08:31:56.105Z,415.47
2022-10-09T08:32:56.204Z,406.11
2022-10-09T08:33:56.375Z,418.86
2022-10-09T08:34:56.464Z,422.05
2022-10-09T08:35:56.578Z,445.15
2022-10-09T08:36:56.666Z,458.30
2022-10-09T08:37:56.785Z,450.26
2022-10-09T08:38:56.928Z,443.37
2022-10-09T08:39:57.037Z,447.24
2022-10-09T08:40:58.305Z,418.60
2022-10-09T08:41:57.276Z,405.12
2022-10-09T08:42:57.401Z,426.09
2022-10-09T08:43:57.524Z,438.71
2022-10-09T08:44:57.652Z,460.20
2022-10-09T08:45:57.835Z,475.97
2022-10-09T08:46:57.926Z,485.32
2022-10-09T08:47:58.042Z,487.81
2022-10-09T08:48:58.213Z,494.68
2022-10-09T08:49:58.274Z,497.27
2022-10-09T08:50:58.385Z,485.67
2022-10-09T08:51:58.496Z,489.24
2022-10-09T08:52:58.616Z,488.88
2022-10-09T08:53:58.816Z,495.05
2022-10-09T08:54:58.877Z,484.62
2022-10-09T08:55:58.975Z,486.03
2022-10-09T08:56:59.081Z,489.60
2022-10-09T08:57:59.192Z,490.68
2022-10-09T08:58:59.334Z,472.93
2022-10-09T08:59:59.385Z,473.94
2022-10-09T09:00:59.524Z,474.61
2022-10-09T09:01:59.742Z,466.32
2022-10-09T09:02:59.797Z,452.09
2022-10-09T09:03:59.904Z,445.15
2022-10-09T09:05:00.054Z,445.74
2022-10-09T09:06:00.117Z,435.55
2022-10-09T09:07:00.223Z,439.57
2022-10-09T09:08:00.343Z,449.65
2022-10-09T09:09:00.520Z,456.42
2022-10-09T09:10:00.579Z,455.80
2022-10-09T09:11:00.685Z,463.72
2022-10-09T09:12:00.795Z,465.99
2022-10-09T09:13:00.943Z,467.95
2022-10-09T09:14:01.056Z,471.26
2022-10-09T09:15:01.134Z,462.44
2022-10-09T09:16:01.392Z,458.93
2022-10-09T09:17:01.412Z,448.44
2022-10-09T09:18:01.557Z,433.29
2022-10-09T09:19:01.702Z,418.08
2022-10-09T09:20:01.762Z,411.12
2022-10-09T09:21:01.873Z,420.45
2022-10-09T09:22:01.971Z,428.28
2022-10-09T09:23:02.123Z,427.18
2022-10-09T09:24:02.260Z,433.57
2022-10-09T09:25:02.362Z,437.84
2022-10-09T09:26:02.463Z,436.12
2022-10-09T09:27:02.572Z,445.15
2022-10-09T09:28:02.733Z,453.63
2022-10-09T09:29:02.878Z,462.76
2022-10-09T09:30:02.935Z,473.60
2022-10-09T09:31:03.089Z,467.30
2022-10-09T09:32:03.173Z,448.44
2022-10-09T09:33:03.282Z,449.65
2022-10-09T09:34:03.403Z,459.88
2022-10-09T09:35:03.511Z,463.72
2022-10-09T09:36:03.629Z,431.33
2022-10-09T09:37:03.751Z,417.55
2022-10-09T09:38:03.871Z,411.37
2022-10-09T09:41:05.242Z,420.18
2022-10-09T09:42:04.371Z,419.92
2022-10-09T09:43:05.155Z,446.34
2022-10-09T09:44:04.659Z,451.78
2022-10-09T09:45:04.823Z,479.05
2022-10-09T09:46:04.988Z,467.30
2022-10-09T09:47:05.010Z,468.61
2022-10-09T09:48:05.218Z,474.61
2022-10-09T09:49:09.348Z,473.60
2022-10-09T09:50:05.403Z,484.62
2022-10-09T09:51:26.747Z,488.52
2022-10-09T09:52:06.672Z,491.04
2022-10-09T09:53:05.873Z,497.64
2022-10-09T09:54:05.930Z,484.97
2022-10-09T09:55:06.030Z,492.13
2022-10-09T09:56:06.145Z,504.03
2022-10-09T09:57:18.218Z,518.94
2022-10-09T09:58:07.430Z,533.89
2022-10-09T09:59:06.490Z,522.19
2022-10-09T10:00:06.597Z,511.77
2022-10-09T10:01:06.861Z,488.52
2022-10-09T10:02:06.923Z,480.08
2022-10-09T10:03:06.959Z,501.76
2022-10-09T10:04:07.129Z,510.98
2022-10-09T10:05:07.180Z,516.12
2022-10-09T10:06:07.289Z,518.53
2022-10-09T10:07:07.415Z,537.34
2022-10-09T10:08:07.529Z,532.19
2022-10-09T10:09:07.691Z,541.26
2022-10-09T10:10:07.730Z,528.39
2022-10-09T10:11:07.887Z,514.93
2022-10-09T10:12:07.990Z,531.34
2022-10-09T10:13:08.139Z,521.78
2022-10-09T10:14:08.448Z,539.51
2022-10-09T10:15:08.321Z,557.09
2022-10-09T10:16:08.501Z,549.74
2022-10-09T10:17:08.537Z,575.35
2022-10-09T10:18:08.649Z,570.43
2022-10-09T10:19:08.847Z,581.88
2022-10-09T10:20:08.898Z,598.06
2022-10-09T10:21:08.988Z,623.21
2022-10-09T10:22:09.098Z,650.57
2022-10-09T10:23:09.257Z,650.57
2022-10-09T10:24:09.442Z,661.54
2022-10-09T10:25:11.507Z,654.40
2022-10-09T10:26:09.569Z,662.20
2022-10-09T10:27:09.738Z,668.17
2022-10-09T10:28:09.901Z,679.75
2022-10-09T10:29:10.009Z,668.17
2022-10-09T10:30:10.103Z,675.62
2022-10-09T10:31:10.312Z,701.19
2022-10-09T10:32:14.176Z,713.19
2022-10-09T10:33:10.527Z,741.75
2022-10-09T10:34:10.727Z,782.99
2022-10-09T10:35:10.784Z,800.84
2022-10-09T10:36:10.981Z,814.52
2022-10-09T10:37:11.004Z,807.13
2022-10-09T10:38:11.157Z,812.04
2022-10-09T10:39:11.407Z,766.36
2022-10-09T10:40:11.395Z,751.27
2022-10-09T10:41:11.555Z,793.23
2022-10-09T10:42:11.676Z,809.58
2022-10-09T10:43:11.799Z,840.68
2022-10-09T10:44:12.016Z,868.01
2022-10-09T10:45:11.995Z,901.42
2022-10-09T10:46:12.180Z,915.01
2022-10-09T10:47:12.225Z,918.79
2022-10-09T10:48:12.328Z,935.53
2022-10-09T10:49:12.493Z,937.50
2022-10-09T10:50:12.534Z,956.99
2022-10-09T10:51:12.655Z,959.74
2022-10-09T10:52:12.745Z,966.69
2022-10-09T10:53:12.848Z,960.43
2022-10-09T10:54:13.083Z,958.36
2022-10-09T10:55:13.113Z,964.59
2022-10-09T10:56:13.226Z,983.79
2022-10-09T10:57:13.304Z,983.06
2022-10-09T10:58:13.500Z,1000.75
2022-10-09T10:59:13.686Z,1000.75
2022-10-09T11:00:13.715Z,1014.44
2022-10-09T11:01:13.920Z,980.18
2022-10-09T11:02:13.943Z,963.20
2022-10-09T11:03:14.154Z,945.47
2022-10-09T11:04:14.352Z,924.52
2022-10-09T11:05:14.326Z,955.62
2022-10-09T11:06:14.484Z,975.16
2022-10-09T11:07:14.582Z,985.97
2022-10-09T11:08:14.754Z,994.04
2022-10-09T11:09:14.903Z,983.79
2022-10-09T11:10:15.072Z,1000.00
2022-10-09T11:11:15.094Z,985.24
2022-10-09T11:12:24.610Z,972.32
2022-10-09T11:13:16.351Z,970.20
2022-10-09T11:14:19.954Z,998.50
2022-10-09T11:15:15.635Z,980.90
2022-10-09T11:16:15.796Z,961.82
2022-10-09T11:17:15.834Z,984.51
2022-10-09T11:18:15.953Z,1000.75
2022-10-09T11:19:16.111Z,997.01
2022-10-09T11:20:16.307Z,991.09
2022-10-09T11:21:16.302Z,967.39
2022-10-09T11:22:16.410Z,906.31
2022-10-09T11:23:16.534Z,860.18
2022-10-09T11:24:16.761Z,824.58
2022-10-09T11:25:16.760Z,791.82
2022-10-09T11:26:16.900Z,761.55
2022-10-09T11:27:17.011Z,729.58
2022-10-09T11:28:17.230Z,725.61
2022-10-09T11:29:17.371Z,724.03
2022-10-09T11:30:17.428Z,708.64
2022-10-09T11:31:17.564Z,702.67
2022-10-09T11:32:17.699Z,701.19
2022-10-09T11:33:17.832Z,703.41
2022-10-09T11:34:18.079Z,695.34
2022-10-09T11:35:18.093Z,691.02
2022-10-09T11:36:18.190Z,686.04
2022-10-09T11:37:18.319Z,681.14
2022-10-09T11:38:18.519Z,676.99
2022-10-09T11:39:18.787Z,672.21
2022-10-09T11:40:18.738Z,664.18
2022-10-09T11:41:18.840Z,651.84
2022-10-09T11:42:18.968Z,639.34
2022-10-09T11:43:19.147Z,641.80
2022-10-09T11:44:19.217Z,639.34
2022-10-09T11:45:19.329Z,639.34
2022-10-09T11:46:19.478Z,675.62
2022-10-09T11:47:19.556Z,707.89
2022-10-09T11:48:19.668Z,720.12
2022-10-09T11:49:19.807Z,733.59
2022-10-09T11:50:19.936Z,750.42
2022-10-09T11:51:20.036Z,750.42
2022-10-09T11:52:20.144Z,730.38
2022-10-09T11:53:20.266Z,729.58
2022-10-09T11:54:20.395Z,724.82
2022-10-09T11:55:20.496Z,727.98
2022-10-09T11:56:20.627Z,711.67
2022-10-09T11:57:20.734Z,728.78
2022-10-09T11:58:20.905Z,743.40
2022-10-09T11:59:21.093Z,740.10
2022-10-09T12:00:21.146Z,750.84
2022-10-09T12:01:21.307Z,755.52
2022-10-09T12:02:21.434Z,754.24
2022-10-09T12:03:21.472Z,751.69
2022-10-09T12:04:37.417Z,743.40
2022-10-09T12:05:22.686Z,758.95
2022-10-09T12:06:21.835Z,755.52
2022-10-09T12:07:21.965Z,761.12
2022-10-09T12:08:22.075Z,782.07
2022-10-09T12:09:22.205Z,793.70
2022-10-09T12:10:22.344Z,794.17
2022-10-09T12:11:22.455Z,784.83
2022-10-09T12:12:22.542Z,791.34
2022-10-09T12:13:22.665Z,790.41
2022-10-09T12:14:22.835Z,779.33
2022-10-09T12:15:22.894Z,787.15
2022-10-09T12:16:23.056Z,791.34
2022-10-09T12:17:23.166Z,795.12
2022-10-09T12:18:23.285Z,795.12
2022-10-09T12:19:23.444Z,807.62
2022-10-09T12:20:23.543Z,811.06
2022-10-09T12:21:23.643Z,828.68
2022-10-09T12:22:23.744Z,835.94
2022-10-09T12:23:27.948Z,849.24
2022-10-09T12:24:24.014Z,851.40
2022-10-09T12:25:24.123Z,853.58
2022-10-09T12:26:24.231Z,870.84
2022-10-09T12:27:24.325Z,873.12
2022-10-09T12:28:24.570Z,878.87
2022-10-09T12:29:24.634Z,880.03
2022-10-09T12:30:24.733Z,892.38
2022-10-09T12:31:24.890Z,906.93
2022-10-09T12:32:24.964Z,911.89
2022-10-09T12:33:25.123Z,906.93
2022-10-09T12:34:25.351Z,923.88
2022-10-09T12:35:25.372Z,936.84
2022-10-09T12:36:25.480Z,948.15
2022-10-09T12:37:25.575Z,953.57
2022-10-09T12:38:25.691Z,968.79
2022-10-09T12:39:25.847Z,979.46
2022-10-09T12:40:25.930Z,963.20
2022-10-09T12:41:26.071Z,956.99
2022-10-09T12:42:26.291Z,956.30
2022-10-09T12:43:26.321Z,938.82
2022-10-09T12:44:26.540Z,944.80
2022-10-09T12:45:26.571Z,954.93